Millry, Alabama
Current Conditions -  °F | °C
As of 10:58 AM on Thursday 27 Nov 2014 (Local Time) from KMEI Reporting Station
Clear Clear  
Wind Chill: 44°   Ceiling: Unl
Heat Index: 49°   Visibility: 10mi
Dew Point: 28°   Wind: 14mph
Humidity: 44%   Direction: 360°N
Pressure: 30.45"   Gusts: NA
Location:  31.63°N, 88.31°W
Report Text: KMEI 271658Z 36012KT 10SM CLR 09/M02 A3045 RMK AO2 SLP310 T00941022
Loading
Personal Weather Stations






























Interactive Weather Map New forecast layout! Learn more

10-Day Weather Forecast

Advertisements
Track Severe Weather on mobile